createdAt,value
2017-01-28T00:00:23.485Z,0
2017-01-28T00:01:34.158Z,0
2017-01-28T00:02:44.836Z,0
2017-01-28T00:03:55.509Z,0
2017-01-28T00:05:05.386Z,0
2017-01-28T00:06:16.060Z,0
2017-01-28T00:07:26.729Z,0
2017-01-28T00:08:37.404Z,0
2017-01-28T00:09:48.100Z,0
2017-01-28T00:10:58.770Z,0
2017-01-28T00:12:09.443Z,0
2017-01-28T00:13:19.716Z,0
2017-01-28T00:14:30.385Z,0
2017-01-28T00:15:41.083Z,0
2017-01-28T00:16:51.755Z,0
2017-01-28T00:18:02.430Z,0
2017-01-28T00:19:13.096Z,0
2017-01-28T00:20:22.178Z,0
2017-01-28T00:21:32.852Z,0
2017-01-28T00:22:43.521Z,0
2017-01-28T00:23:54.192Z,0
2017-01-28T00:25:04.894Z,0
2017-01-28T00:26:15.169Z,0
2017-01-28T00:27:25.850Z,0
2017-01-28T00:28:36.519Z,0
2017-01-28T00:29:46.819Z,0
2017-01-28T00:30:57.486Z,0
2017-01-28T00:32:08.159Z,0
2017-01-28T00:33:18.440Z,0
2017-01-28T00:34:28.714Z,0
2017-01-28T00:35:39.386Z,0
2017-01-28T00:36:50.063Z,0
2017-01-28T00:38:00.747Z,0
2017-01-28T00:39:11.015Z,0
2017-01-28T00:40:21.285Z,0
2017-01-28T00:41:31.971Z,0
2017-01-28T00:42:42.250Z,0
2017-01-28T00:43:52.925Z,0
2017-01-28T00:45:03.594Z,0
2017-01-28T00:46:13.863Z,0
2017-01-28T00:47:24.135Z,0
2017-01-28T00:48:34.807Z,0
2017-01-28T00:49:45.088Z,0
2017-01-28T00:50:55.757Z,0
2017-01-28T00:52:06.428Z,0
2017-01-28T00:53:17.098Z,0
2017-01-28T00:54:27.767Z,0
2017-01-28T00:55:38.038Z,0
2017-01-28T00:56:48.725Z,0
2017-01-28T00:57:59.401Z,0
2017-01-28T00:59:09.679Z,0
2017-01-28T01:00:20.359Z,0
2017-01-28T01:01:31.028Z,0
2017-01-28T01:02:41.698Z,0
2017-01-28T01:03:52.370Z,0
2017-01-28T01:05:03.049Z,0
2017-01-28T01:06:13.327Z,0
2017-01-28T01:07:23.996Z,0
2017-01-28T01:08:34.670Z,0
2017-01-28T01:09:45.344Z,0
2017-01-28T01:10:55.619Z,0
2017-01-28T01:12:06.292Z,0
2017-01-28T01:13:16.178Z,0
2017-01-28T01:14:26.880Z,0
2017-01-28T01:15:37.549Z,0
2017-01-28T01:16:48.225Z,0
2017-01-28T01:17:58.897Z,0
2017-01-28T01:19:09.170Z,0
2017-01-28T01:20:19.850Z,0
2017-01-28T01:21:30.518Z,0
2017-01-28T01:22:41.196Z,0
2017-01-28T01:23:51.877Z,0
2017-01-28T01:25:02.546Z,0
2017-01-28T01:26:12.824Z,0
2017-01-28T01:27:23.093Z,0
2017-01-28T01:28:33.762Z,0
2017-01-28T01:29:44.040Z,0
2017-01-28T01:30:54.710Z,0
2017-01-28T01:32:05.381Z,0
2017-01-28T01:33:15.656Z,0
2017-01-28T01:34:26.359Z,0
2017-01-28T01:35:37.039Z,0
2017-01-28T01:36:47.716Z,0
2017-01-28T01:37:58.382Z,0
2017-01-28T01:39:09.050Z,0
2017-01-28T01:40:19.332Z,0
2017-01-28T01:41:30.003Z,0
2017-01-28T01:42:40.314Z,0
2017-01-28T01:43:50.989Z,0
2017-01-28T01:45:01.654Z,0
2017-01-28T01:46:12.329Z,0
2017-01-28T01:47:22.202Z,0
2017-01-28T01:48:32.497Z,0
2017-01-28T01:49:43.178Z,0
2017-01-28T01:50:53.852Z,0
2017-01-28T01:52:04.552Z,0
2017-01-28T01:53:15.223Z,0
2017-01-28T01:54:25.887Z,0
2017-01-28T01:55:36.555Z,0
2017-01-28T01:56:47.228Z,0
2017-01-28T01:57:57.906Z,0
2017-01-28T01:59:08.583Z,0
2017-01-28T02:00:18.856Z,0
2017-01-28T02:01:29.527Z,0
2017-01-28T02:02:39.802Z,0
2017-01-28T02:03:50.082Z,0
2017-01-28T02:05:00.758Z,0
2017-01-28T02:06:11.044Z,0
2017-01-28T02:07:21.714Z,0
2017-01-28T02:08:32.385Z,0
2017-01-28T02:09:43.061Z,0
2017-01-28T02:10:53.738Z,0
2017-01-28T02:12:04.408Z,0
2017-01-28T02:13:15.092Z,0
2017-01-28T02:14:25.766Z,0
2017-01-28T02:15:36.439Z,0
2017-01-28T02:16:47.112Z,0
2017-01-28T02:17:57.810Z,0
2017-01-28T02:19:08.082Z,0
2017-01-28T02:20:18.356Z,0
2017-01-28T02:21:29.029Z,0
2017-01-28T02:22:39.705Z,0
2017-01-28T02:23:49.987Z,0
2017-01-28T02:25:00.260Z,0
2017-01-28T02:26:10.540Z,0
2017-01-28T02:27:21.226Z,0
2017-01-28T02:28:31.898Z,0
2017-01-28T02:29:42.582Z,0
2017-01-28T02:30:53.271Z,0
2017-01-28T02:32:03.550Z,0
2017-01-28T02:33:14.222Z,0
2017-01-28T02:34:24.899Z,0
2017-01-28T02:35:35.578Z,0
2017-01-28T02:36:46.258Z,0
2017-01-28T02:37:56.928Z,0
2017-01-28T02:39:07.603Z,0
2017-01-28T02:40:18.282Z,0
2017-01-28T02:41:28.958Z,0
2017-01-28T02:42:39.634Z,0
2017-01-28T02:43:50.312Z,0
2017-01-28T02:45:00.986Z,0
2017-01-28T02:46:11.686Z,0
2017-01-28T02:47:22.356Z,0
2017-01-28T02:48:33.028Z,0
2017-01-28T02:49:43.700Z,0
2017-01-28T02:50:54.375Z,0
2017-01-28T02:52:05.049Z,0
2017-01-28T02:53:15.324Z,0
2017-01-28T02:54:25.603Z,0
2017-01-28T02:55:36.268Z,0
2017-01-28T02:56:46.546Z,0
2017-01-28T02:57:57.214Z,0
2017-01-28T02:59:07.498Z,0
2017-01-28T03:00:18.185Z,0
2017-01-28T03:01:28.859Z,0
2017-01-28T03:02:39.528Z,0
2017-01-28T03:03:49.406Z,0
2017-01-28T03:05:00.093Z,0
2017-01-28T03:06:10.370Z,0
2017-01-28T03:07:20.647Z,0
2017-01-28T03:08:31.337Z,0
2017-01-28T03:09:42.002Z,0
2017-01-28T03:10:52.675Z,0
2017-01-28T03:12:03.358Z,0
2017-01-28T03:13:14.059Z,0
2017-01-28T03:14:24.336Z,0
2017-01-28T03:15:35.022Z,0
2017-01-28T03:16:45.722Z,0
2017-01-28T03:17:56.391Z,0
2017-01-28T03:19:07.071Z,0
2017-01-28T03:20:17.746Z,0
2017-01-28T03:21:28.414Z,0
2017-01-28T03:22:39.082Z,0
2017-01-28T03:23:49.751Z,0
2017-01-28T03:25:00.412Z,0
2017-01-28T03:26:10.686Z,0
2017-01-28T03:27:21.356Z,0
2017-01-28T03:28:32.034Z,0
2017-01-28T03:29:42.711Z,0
2017-01-28T03:30:53.391Z,0
2017-01-28T03:32:04.067Z,0
2017-01-28T03:33:14.348Z,0
2017-01-28T03:34:25.018Z,0
2017-01-28T03:35:35.685Z,0
2017-01-28T03:36:46.362Z,0
2017-01-28T03:37:56.639Z,0
2017-01-28T03:39:06.910Z,0
2017-01-28T03:40:17.183Z,0
2017-01-28T03:41:27.857Z,0
2017-01-28T03:42:38.532Z,0
2017-01-28T03:43:48.805Z,0
2017-01-28T03:44:59.479Z,0
2017-01-28T03:46:10.159Z,0
2017-01-28T03:47:20.835Z,0
2017-01-28T03:48:31.856Z,0
2017-01-28T03:49:42.536Z,0
2017-01-28T03:50:53.203Z,0
2017-01-28T03:52:03.876Z,0
2017-01-28T03:53:13.786Z,0
2017-01-28T03:54:24.467Z,0
2017-01-28T03:55:35.140Z,0
2017-01-28T03:56:45.816Z,0
2017-01-28T03:57:56.497Z,0
2017-01-28T03:59:07.171Z,0
2017-01-28T04:00:17.844Z,0
2017-01-28T04:01:28.516Z,0
2017-01-28T04:02:39.191Z,0
2017-01-28T04:03:49.869Z,0
2017-01-28T04:05:00.543Z,0
2017-01-28T04:06:11.228Z,0
2017-01-28T04:07:21.906Z,0
2017-01-28T04:08:32.584Z,0
2017-01-28T04:09:43.259Z,0
2017-01-28T04:10:53.934Z,0
2017-01-28T04:12:04.207Z,0
2017-01-28T04:13:14.492Z,0
2017-01-28T04:14:25.171Z,0
2017-01-28T04:15:35.845Z,0
2017-01-28T04:16:46.516Z,0
2017-01-28T04:17:57.186Z,0
2017-01-28T04:19:07.857Z,0
2017-01-28T04:20:18.132Z,0
2017-01-28T04:21:28.813Z,0
2017-01-28T04:22:39.490Z,0
2017-01-28T04:23:50.163Z,0
2017-01-28T04:25:00.860Z,0
2017-01-28T04:26:11.134Z,0
2017-01-28T04:27:21.411Z,0
2017-01-28T04:28:32.115Z,0
2017-01-28T04:29:42.794Z,0
2017-01-28T04:30:53.073Z,0
2017-01-28T04:32:03.744Z,0
2017-01-28T04:33:13.625Z,0
2017-01-28T04:34:24.307Z,0
2017-01-28T04:35:34.980Z,0
2017-01-28T04:36:45.650Z,0
2017-01-28T04:37:56.327Z,0
2017-01-28T04:39:07.005Z,0
2017-01-28T04:40:17.280Z,0
2017-01-28T04:41:27.952Z,0
2017-01-28T04:42:38.621Z,0
2017-01-28T04:43:49.297Z,0
2017-01-28T04:44:59.966Z,0
2017-01-28T04:46:10.240Z,0
2017-01-28T04:47:20.120Z,0
2017-01-28T04:48:30.795Z,0
2017-01-28T04:49:41.074Z,0
2017-01-28T04:50:51.749Z,0
2017-01-28T04:52:02.451Z,0
2017-01-28T04:53:13.121Z,0
2017-01-28T04:54:23.397Z,0
2017-01-28T04:55:34.066Z,0
2017-01-28T04:56:44.744Z,0
2017-01-28T04:57:55.014Z,0
2017-01-28T04:59:05.691Z,0
2017-01-28T05:00:15.965Z,0
2017-01-28T05:01:26.639Z,0
2017-01-28T05:02:37.322Z,0
2017-01-28T05:03:47.999Z,0
2017-01-28T05:04:58.673Z,0
2017-01-28T05:06:09.345Z,0
2017-01-28T05:07:19.249Z,0
2017-01-28T05:08:29.926Z,0
2017-01-28T05:09:39.798Z,0
2017-01-28T05:10:50.473Z,0
2017-01-28T05:12:01.153Z,0
2017-01-28T05:13:11.467Z,0
2017-01-28T05:14:21.737Z,0
2017-01-28T05:15:32.442Z,0
2017-01-28T05:16:43.119Z,0
2017-01-28T05:17:53.393Z,0
2017-01-28T05:19:04.092Z,0
2017-01-28T05:20:13.967Z,0
2017-01-28T05:21:24.640Z,0
2017-01-28T05:22:35.318Z,0
2017-01-28T05:23:45.993Z,0
2017-01-28T05:24:56.270Z,0
2017-01-28T05:26:06.935Z,0
2017-01-28T05:27:17.212Z,0
2017-01-28T05:28:27.881Z,0
2017-01-28T05:29:38.559Z,0
2017-01-28T05:30:49.241Z,0
2017-01-28T05:31:59.918Z,0
2017-01-28T05:33:10.587Z,0
2017-01-28T05:34:21.273Z,0
2017-01-28T05:35:31.949Z,0
2017-01-28T05:36:42.226Z,0
2017-01-28T05:37:52.923Z,0
2017-01-28T05:39:03.212Z,0
2017-01-28T05:40:13.485Z,0
2017-01-28T05:41:24.160Z,0
2017-01-28T05:42:34.834Z,0
2017-01-28T05:43:45.505Z,0
2017-01-28T05:44:56.184Z,0
2017-01-28T05:46:06.855Z,0
2017-01-28T05:47:17.133Z,0
2017-01-28T05:48:27.808Z,0
2017-01-28T05:49:38.483Z,0
2017-01-28T05:50:49.158Z,0
2017-01-28T05:51:59.834Z,0
2017-01-28T05:53:10.500Z,0
2017-01-28T05:54:21.173Z,0
2017-01-28T05:55:31.844Z,0
2017-01-28T05:56:42.511Z,0
2017-01-28T05:57:53.180Z,0
2017-01-28T05:59:03.860Z,0
2017-01-28T06:00:14.139Z,0
2017-01-28T06:01:24.816Z,0
2017-01-28T06:02:35.495Z,0
2017-01-28T06:03:46.165Z,0
2017-01-28T06:04:56.842Z,0
2017-01-28T06:06:07.517Z,0
2017-01-28T06:07:17.396Z,0
2017-01-28T06:08:28.071Z,0
2017-01-28T06:09:38.346Z,0
2017-01-28T06:10:48.623Z,0
2017-01-28T06:11:59.303Z,0
2017-01-28T06:13:09.977Z,0
2017-01-28T06:14:20.282Z,0
2017-01-28T06:15:30.983Z,0
2017-01-28T06:16:41.267Z,0
2017-01-28T06:17:51.937Z,0
2017-01-28T06:19:02.626Z,0
2017-01-28T06:20:12.526Z,0
2017-01-28T06:21:22.808Z,0
2017-01-28T06:22:33.482Z,0
2017-01-28T06:23:43.757Z,0
2017-01-28T06:24:54.427Z,0
2017-01-28T06:26:05.100Z,0
2017-01-28T06:27:15.479Z,0
2017-01-28T06:28:26.152Z,0
2017-01-28T06:29:36.821Z,0
2017-01-28T06:30:47.497Z,0
2017-01-28T06:31:57.767Z,0
2017-01-28T06:33:08.440Z,0
2017-01-28T06:34:18.745Z,0
2017-01-28T06:35:29.419Z,0
2017-01-28T06:36:40.090Z,0
2017-01-28T06:37:50.764Z,0
2017-01-28T06:39:00.651Z,0
2017-01-28T06:40:11.325Z,0
2017-01-28T06:41:21.998Z,0
2017-01-28T06:42:32.666Z,0
2017-01-28T06:43:43.347Z,0
2017-01-28T06:44:54.028Z,0
2017-01-28T06:46:04.697Z,0
2017-01-28T06:47:14.585Z,0
2017-01-28T06:48:24.861Z,0
2017-01-28T06:49:35.533Z,0
2017-01-28T06:50:46.213Z,0
2017-01-28T06:51:56.881Z,0
2017-01-28T06:53:07.560Z,0
2017-01-28T06:54:18.228Z,0
2017-01-28T06:55:28.901Z,0
2017-01-28T06:56:39.585Z,0
2017-01-28T06:57:50.259Z,0
2017-01-28T06:59:00.928Z,0
2017-01-28T07:00:11.206Z,0
2017-01-28T07:01:21.878Z,0
2017-01-28T07:02:32.584Z,0
2017-01-28T07:03:43.261Z,0
2017-01-28T07:04:53.933Z,0
2017-01-28T07:06:04.608Z,0
2017-01-28T07:07:15.284Z,0
2017-01-28T07:08:25.957Z,0
2017-01-28T07:09:36.236Z,0
2017-01-28T07:10:46.916Z,0
2017-01-28T07:11:57.587Z,0
2017-01-28T07:13:08.263Z,0
2017-01-28T07:14:18.546Z,0
2017-01-28T07:15:29.213Z,0
2017-01-28T07:16:39.892Z,0
2017-01-28T07:17:50.566Z,0
2017-01-28T07:19:01.238Z,0
2017-01-28T07:20:12.195Z,0
2017-01-28T07:21:22.866Z,0
2017-01-28T07:22:33.536Z,0
2017-01-28T07:23:43.816Z,0
2017-01-28T07:24:54.494Z,0
2017-01-28T07:26:04.771Z,0
2017-01-28T07:27:15.054Z,0
2017-01-28T07:28:25.725Z,0
2017-01-28T07:29:36.391Z,0
2017-01-28T07:30:47.062Z,0
2017-01-28T07:31:57.735Z,0
2017-01-28T07:33:08.410Z,0
2017-01-28T07:34:19.085Z,0
2017-01-28T07:35:29.759Z,0
2017-01-28T07:36:40.432Z,0
2017-01-28T07:37:51.103Z,0
2017-01-28T07:39:01.379Z,0
2017-01-28T07:40:12.056Z,0
2017-01-28T07:41:22.329Z,0
2017-01-28T07:42:33.003Z,0
2017-01-28T07:43:43.677Z,0
2017-01-28T07:44:53.947Z,0
2017-01-28T07:46:04.619Z,0
2017-01-28T07:47:14.499Z,5
2017-01-28T07:48:25.173Z,5
2017-01-28T07:49:35.843Z,5
2017-01-28T07:50:46.524Z,5
2017-01-28T07:51:57.196Z,5
2017-01-28T07:53:07.870Z,5
2017-01-28T07:54:18.145Z,5
2017-01-28T07:55:28.821Z,5
2017-01-28T07:56:39.505Z,5
2017-01-28T07:57:50.175Z,5
2017-01-28T07:59:00.870Z,5
2017-01-28T08:00:10.751Z,5
2017-01-28T08:01:21.420Z,10
2017-01-28T08:02:32.086Z,10
2017-01-28T08:03:42.760Z,10
2017-01-28T08:04:53.429Z,10
2017-01-28T08:06:04.094Z,10
2017-01-28T08:07:14.371Z,10
2017-01-28T08:08:25.035Z,10
2017-01-28T08:09:35.705Z,15
2017-01-28T08:10:46.371Z,15
2017-01-28T08:11:57.064Z,15
2017-01-28T08:13:07.343Z,15
2017-01-28T08:14:17.651Z,15
2017-01-28T08:15:27.925Z,15
2017-01-28T08:16:38.597Z,15
2017-01-28T08:17:49.275Z,20
2017-01-28T08:18:59.952Z,20
2017-01-28T08:20:09.857Z,20
2017-01-28T08:21:20.556Z,20
2017-01-28T08:22:31.227Z,20
2017-01-28T08:23:41.901Z,20
2017-01-28T08:24:52.175Z,25
2017-01-28T08:26:02.850Z,25
2017-01-28T08:27:13.123Z,25
2017-01-28T08:28:23.789Z,25
2017-01-28T08:29:34.466Z,25
2017-01-28T08:30:45.149Z,25
2017-01-28T08:31:55.818Z,25
2017-01-28T08:33:06.490Z,30
2017-01-28T08:34:16.768Z,30
2017-01-28T08:35:27.441Z,30
2017-01-28T08:36:38.114Z,30
2017-01-28T08:37:48.778Z,30
2017-01-28T08:38:59.047Z,30
2017-01-28T08:40:09.725Z,30
2017-01-28T08:41:20.401Z,35
2017-01-28T08:42:31.101Z,35
2017-01-28T08:43:41.784Z,35
2017-01-28T08:44:52.481Z,35
2017-01-28T08:46:03.157Z,40
2017-01-28T08:47:13.427Z,40
2017-01-28T08:48:24.089Z,40
2017-01-28T08:49:34.770Z,40
2017-01-28T08:50:45.440Z,40
2017-01-28T08:51:56.115Z,45
2017-01-28T08:53:06.387Z,45
2017-01-28T08:54:17.056Z,45
2017-01-28T08:55:27.337Z,45
2017-01-28T08:56:38.013Z,45
2017-01-28T08:57:48.695Z,45
2017-01-28T08:58:59.370Z,45
2017-01-28T09:00:10.042Z,45
2017-01-28T09:01:20.746Z,45
2017-01-28T09:02:31.412Z,45
2017-01-28T09:03:42.083Z,45
2017-01-28T09:04:52.755Z,45
2017-01-28T09:06:03.031Z,50
2017-01-28T09:07:13.703Z,50
2017-01-28T09:08:24.372Z,50
2017-01-28T09:09:35.042Z,50
2017-01-28T09:10:44.919Z,50
2017-01-28T09:11:55.598Z,50
2017-01-28T09:13:06.280Z,50
2017-01-28T09:14:16.575Z,55
2017-01-28T09:15:27.245Z,55
2017-01-28T09:16:37.519Z,60
2017-01-28T09:17:48.214Z,60
2017-01-28T09:18:58.888Z,60
2017-01-28T09:20:09.572Z,60
2017-01-28T09:21:19.852Z,60
2017-01-28T09:22:30.523Z,60
2017-01-28T09:23:41.197Z,65
2017-01-28T09:24:51.865Z,65
2017-01-28T09:26:02.534Z,65
2017-01-28T09:27:13.204Z,65
2017-01-28T09:28:23.878Z,60
2017-01-28T09:29:34.548Z,60
2017-01-28T09:30:44.814Z,60
2017-01-28T09:31:55.093Z,60
2017-01-28T09:33:05.361Z,65
2017-01-28T09:34:15.243Z,65
2017-01-28T09:35:25.940Z,70
2017-01-28T09:36:36.614Z,70
2017-01-28T09:37:47.300Z,70
2017-01-28T09:38:57.578Z,70
2017-01-28T09:40:08.255Z,70
2017-01-28T09:41:18.927Z,65
2017-01-28T09:42:29.207Z,65
2017-01-28T09:43:39.881Z,65
2017-01-28T09:44:50.548Z,65
2017-01-28T09:46:01.220Z,70
2017-01-28T09:47:11.916Z,70
2017-01-28T09:48:22.198Z,70
2017-01-28T09:49:32.870Z,70
2017-01-28T09:50:43.550Z,70
2017-01-28T09:51:54.227Z,70
2017-01-28T09:53:04.904Z,70
2017-01-28T09:54:15.177Z,70
2017-01-28T09:55:25.460Z,70
2017-01-28T09:56:36.160Z,70
2017-01-28T09:57:46.841Z,70
2017-01-28T09:58:57.531Z,70
2017-01-28T10:00:07.797Z,70
2017-01-28T10:01:18.070Z,70
2017-01-28T10:02:28.343Z,70
2017-01-28T10:03:38.611Z,70
2017-01-28T10:04:49.276Z,70
2017-01-28T10:05:59.945Z,70
2017-01-28T10:07:10.220Z,70
2017-01-28T10:08:20.885Z,70
2017-01-28T10:09:31.548Z,75
2017-01-28T10:10:42.219Z,75
2017-01-28T10:11:52.892Z,75
2017-01-28T10:13:03.572Z,75
2017-01-28T10:14:13.852Z,75
2017-01-28T10:15:24.526Z,75
2017-01-28T10:16:35.194Z,70
2017-01-28T10:17:45.868Z,70
2017-01-28T10:18:56.137Z,70
2017-01-28T10:20:06.809Z,70
2017-01-28T10:21:17.086Z,70
2017-01-28T10:22:27.755Z,75
2017-01-28T10:23:38.430Z,75
2017-01-28T10:24:49.105Z,75
2017-01-28T10:25:59.772Z,75
2017-01-28T10:27:10.048Z,75
2017-01-28T10:28:20.721Z,75
2017-01-28T10:29:31.393Z,80
2017-01-28T10:30:42.061Z,80
2017-01-28T10:31:52.741Z,80
2017-01-28T10:33:03.417Z,80
2017-01-28T10:34:14.159Z,80
2017-01-28T10:35:24.433Z,75
2017-01-28T10:36:35.104Z,75
2017-01-28T10:37:45.380Z,75
2017-01-28T10:38:55.678Z,75
2017-01-28T10:40:05.555Z,75
2017-01-28T10:41:15.835Z,75
2017-01-28T10:42:26.107Z,75
2017-01-28T10:43:36.776Z,75
2017-01-28T10:44:47.055Z,75
2017-01-28T10:45:57.728Z,80
2017-01-28T10:47:08.406Z,80
2017-01-28T10:48:17.885Z,90
2017-01-28T10:49:28.553Z,90
2017-01-28T10:50:39.231Z,90
2017-01-28T10:51:49.905Z,90
2017-01-28T10:53:00.581Z,90
2017-01-28T10:54:10.462Z,85
2017-01-28T10:55:21.129Z,90
2017-01-28T10:56:31.400Z,100
2017-01-28T10:57:42.070Z,100
2017-01-28T10:58:52.737Z,100
2017-01-28T11:00:03.413Z,100
2017-01-28T11:01:13.690Z,105
2017-01-28T11:02:23.968Z,105
2017-01-28T11:03:34.660Z,100
2017-01-28T11:04:45.330Z,100
2017-01-28T11:05:56.000Z,100
2017-01-28T11:07:06.676Z,100
2017-01-28T11:08:16.559Z,100
2017-01-28T11:09:27.226Z,105
2017-01-28T11:10:37.895Z,105
2017-01-28T11:11:48.572Z,105
2017-01-28T11:12:58.849Z,110
2017-01-28T11:14:09.517Z,105
2017-01-28T11:15:20.190Z,105
2017-01-28T11:16:30.857Z,105
2017-01-28T11:17:41.528Z,110
2017-01-28T11:18:52.202Z,115
2017-01-28T11:20:02.876Z,115
2017-01-28T11:21:13.549Z,110
2017-01-28T11:22:24.220Z,110
2017-01-28T11:23:34.493Z,110
2017-01-28T11:24:45.192Z,110
2017-01-28T11:25:55.862Z,115
2017-01-28T11:27:06.535Z,115
2017-01-28T11:28:16.807Z,115
2017-01-28T11:29:27.483Z,115
2017-01-28T11:30:38.151Z,120
2017-01-28T11:31:48.827Z,115
2017-01-28T11:32:59.534Z,110
2017-01-28T11:34:09.815Z,110
2017-01-28T11:35:20.486Z,110
2017-01-28T11:36:31.159Z,105
2017-01-28T11:37:41.434Z,105
2017-01-28T11:38:52.106Z,105
2017-01-28T11:40:02.777Z,110
2017-01-28T11:41:13.049Z,115
2017-01-28T11:42:23.327Z,115
2017-01-28T11:43:33.995Z,110
2017-01-28T11:44:44.667Z,110
2017-01-28T11:45:55.335Z,115
2017-01-28T11:47:06.008Z,110
2017-01-28T11:48:16.682Z,105
2017-01-28T11:49:27.352Z,105
2017-01-28T11:50:38.020Z,115
2017-01-28T11:51:48.701Z,125
2017-01-28T11:52:58.981Z,130
2017-01-28T11:54:09.648Z,125
2017-01-28T11:55:19.555Z,130
2017-01-28T11:56:30.232Z,135
2017-01-28T11:57:40.896Z,145
2017-01-28T11:58:51.605Z,145
2017-01-28T12:00:01.883Z,140
2017-01-28T12:01:12.166Z,140
2017-01-28T12:02:22.837Z,140
2017-01-28T12:03:33.511Z,140
2017-01-28T12:04:44.185Z,140
2017-01-28T12:05:54.865Z,145
2017-01-28T12:07:05.537Z,135
2017-01-28T12:08:16.206Z,135
2017-01-28T12:09:26.875Z,135
2017-01-28T12:10:37.558Z,125
2017-01-28T12:11:48.230Z,120
2017-01-28T12:12:58.929Z,125
2017-01-28T12:14:09.057Z,130
2017-01-28T12:15:19.332Z,135
2017-01-28T12:16:30.008Z,135
2017-01-28T12:17:40.691Z,145
2017-01-28T12:18:51.363Z,140
2017-01-28T12:20:02.036Z,135
2017-01-28T12:21:12.310Z,135
2017-01-28T12:22:22.978Z,130
2017-01-28T12:23:33.642Z,130
2017-01-28T12:24:44.313Z,135
2017-01-28T12:25:54.989Z,140
2017-01-28T12:27:05.662Z,145
2017-01-28T12:28:15.935Z,135
2017-01-28T12:29:26.609Z,135
2017-01-28T12:30:37.281Z,130
2017-01-28T12:31:47.553Z,115
2017-01-28T12:32:57.836Z,105
2017-01-28T12:34:08.513Z,105
2017-01-28T12:35:19.218Z,105
2017-01-28T12:36:29.888Z,100
2017-01-28T12:37:40.587Z,95
2017-01-28T12:38:51.254Z,90
2017-01-28T12:40:01.935Z,95
2017-01-28T12:41:12.204Z,95
2017-01-28T12:42:22.472Z,95
2017-01-28T12:43:32.744Z,90
2017-01-28T12:44:43.416Z,90
2017-01-28T12:45:54.088Z,80
2017-01-28T12:47:04.776Z,80
2017-01-28T12:48:15.075Z,75
2017-01-28T12:49:25.752Z,75
2017-01-28T12:50:36.415Z,75
2017-01-28T12:51:47.080Z,75
2017-01-28T12:52:57.758Z,75
2017-01-28T12:54:08.035Z,75
2017-01-28T12:55:17.540Z,75
2017-01-28T12:56:28.217Z,75
2017-01-28T12:57:38.905Z,75
2017-01-28T12:58:49.602Z,75
2017-01-28T13:00:00.275Z,70
2017-01-28T13:01:10.549Z,70
2017-01-28T13:02:20.818Z,70
2017-01-28T13:03:31.489Z,70
2017-01-28T13:04:41.771Z,70
2017-01-28T13:05:52.445Z,70
2017-01-28T13:07:03.124Z,70
2017-01-28T13:08:13.797Z,65
2017-01-28T13:09:24.073Z,65
2017-01-28T13:10:34.743Z,65
2017-01-28T13:11:45.412Z,65
2017-01-28T13:12:56.088Z,65
2017-01-28T13:14:06.369Z,65
2017-01-28T13:15:17.035Z,65
2017-01-28T13:16:27.314Z,60
2017-01-28T13:17:37.597Z,60
2017-01-28T13:18:48.300Z,60
2017-01-28T13:19:58.977Z,60
2017-01-28T13:21:09.651Z,60
2017-01-28T13:22:20.318Z,60
2017-01-28T13:23:31.001Z,60
2017-01-28T13:24:41.700Z,60
2017-01-28T13:25:52.372Z,60
2017-01-28T13:27:03.081Z,60
2017-01-28T13:28:13.757Z,60
2017-01-28T13:29:24.058Z,65
2017-01-28T13:30:34.737Z,65
2017-01-28T13:31:44.616Z,65
2017-01-28T13:32:55.287Z,60
2017-01-28T13:34:05.966Z,60
2017-01-28T13:35:16.235Z,55
2017-01-28T13:36:26.931Z,55
2017-01-28T13:37:37.610Z,60
2017-01-28T13:38:48.287Z,60
2017-01-28T13:39:58.558Z,55
2017-01-28T13:41:09.234Z,50
2017-01-28T13:42:19.905Z,50
2017-01-28T13:43:30.578Z,45
2017-01-28T13:44:40.850Z,45
2017-01-28T13:45:51.518Z,40
2017-01-28T13:47:02.192Z,40
2017-01-28T13:48:12.473Z,35
2017-01-28T13:49:23.145Z,35
2017-01-28T13:50:33.812Z,35
2017-01-28T13:51:44.483Z,40
2017-01-28T13:52:55.150Z,40
2017-01-28T13:54:05.823Z,40
2017-01-28T13:55:16.514Z,40
2017-01-28T13:56:27.227Z,40
2017-01-28T13:57:37.904Z,40
2017-01-28T13:58:48.572Z,40
2017-01-28T13:59:59.248Z,35
2017-01-28T14:01:09.922Z,35
2017-01-28T14:02:20.588Z,35
2017-01-28T14:03:30.865Z,35
2017-01-28T14:04:41.536Z,35
2017-01-28T14:05:52.208Z,35
2017-01-28T14:07:02.885Z,35
2017-01-28T14:08:13.155Z,35
2017-01-28T14:09:23.825Z,35
2017-01-28T14:10:34.498Z,35
2017-01-28T14:11:45.166Z,35
2017-01-28T14:12:55.837Z,35
2017-01-28T14:14:06.509Z,30
2017-01-28T14:15:17.185Z,30
2017-01-28T14:16:27.852Z,30
2017-01-28T14:17:38.518Z,30
2017-01-28T14:18:49.184Z,25
2017-01-28T14:19:59.859Z,25
2017-01-28T14:21:10.137Z,25
2017-01-28T14:22:20.419Z,25
2017-01-28T14:23:31.094Z,25
2017-01-28T14:24:41.782Z,20
2017-01-28T14:25:52.456Z,20
2017-01-28T14:27:03.132Z,20
2017-01-28T14:28:13.408Z,20
2017-01-28T14:29:24.075Z,20
2017-01-28T14:30:34.742Z,20
2017-01-28T14:31:45.412Z,20
2017-01-28T14:32:56.083Z,20
2017-01-28T14:34:06.763Z,20
2017-01-28T14:35:17.038Z,15
2017-01-28T14:36:27.721Z,15
2017-01-28T14:37:38.399Z,15
2017-01-28T14:38:49.068Z,15
2017-01-28T14:39:59.737Z,15
2017-01-28T14:41:10.010Z,15
2017-01-28T14:42:20.683Z,15
2017-01-28T14:43:31.354Z,15
2017-01-28T14:44:42.022Z,15
2017-01-28T14:45:52.694Z,15
2017-01-28T14:47:03.397Z,15
2017-01-28T14:48:13.272Z,15
2017-01-28T14:49:23.943Z,15
2017-01-28T14:50:34.611Z,10
2017-01-28T14:51:45.291Z,10
2017-01-28T14:52:55.964Z,10
2017-01-28T14:54:06.636Z,10
2017-01-28T14:55:16.910Z,10
2017-01-28T14:56:27.592Z,10
2017-01-28T14:57:38.276Z,10
2017-01-28T14:58:48.952Z,5
2017-01-28T14:59:59.621Z,5
2017-01-28T15:01:10.288Z,5
2017-01-28T15:02:20.576Z,5
2017-01-28T15:03:31.247Z,5
2017-01-28T15:04:41.925Z,5
2017-01-28T15:05:52.596Z,5
2017-01-28T15:07:03.268Z,5
2017-01-28T15:08:13.546Z,5
2017-01-28T15:09:24.217Z,5
2017-01-28T15:10:34.886Z,5
2017-01-28T15:11:45.552Z,5
2017-01-28T15:12:55.820Z,0
2017-01-28T15:14:06.493Z,0
2017-01-28T15:15:17.162Z,0
2017-01-28T15:16:27.835Z,0
2017-01-28T15:17:38.511Z,0
2017-01-28T15:18:49.184Z,0
2017-01-28T15:19:59.860Z,0
2017-01-28T15:21:10.133Z,0
2017-01-28T15:22:20.506Z,0
2017-01-28T15:23:31.177Z,0
2017-01-28T15:24:41.851Z,0
2017-01-28T15:25:52.536Z,0
2017-01-28T15:27:03.208Z,0
2017-01-28T15:28:13.484Z,0
2017-01-28T15:29:24.176Z,0
2017-01-28T15:30:34.853Z,0
2017-01-28T15:31:45.521Z,0
2017-01-28T15:32:56.224Z,0
2017-01-28T15:34:06.899Z,0
2017-01-28T15:35:17.574Z,0
2017-01-28T15:36:28.247Z,0
2017-01-28T15:37:38.919Z,0
2017-01-28T15:38:49.593Z,0
2017-01-28T15:40:00.266Z,0
2017-01-28T15:41:10.941Z,0
2017-01-28T15:42:21.213Z,0
2017-01-28T15:43:31.884Z,0
2017-01-28T15:44:42.562Z,0
2017-01-28T15:45:53.238Z,0
2017-01-28T15:47:03.915Z,0
2017-01-28T15:48:14.604Z,0
2017-01-28T15:49:25.276Z,0
2017-01-28T15:50:35.949Z,0
2017-01-28T15:51:46.650Z,0
2017-01-28T15:52:57.325Z,0
2017-01-28T15:54:08.009Z,0
2017-01-28T15:55:18.282Z,0
2017-01-28T15:56:28.160Z,0
2017-01-28T15:57:38.829Z,0
2017-01-28T15:58:49.104Z,0
2017-01-28T15:59:59.772Z,0
2017-01-28T16:01:10.048Z,0
2017-01-28T16:02:20.735Z,0
2017-01-28T16:03:31.423Z,0
2017-01-28T16:04:42.095Z,0
2017-01-28T16:05:52.765Z,0
2017-01-28T16:07:03.437Z,0
2017-01-28T16:08:13.711Z,0
2017-01-28T16:09:24.380Z,0
2017-01-28T16:10:35.053Z,0
2017-01-28T16:11:45.723Z,0
2017-01-28T16:12:56.401Z,0
2017-01-28T16:14:07.068Z,0
2017-01-28T16:15:16.947Z,0
2017-01-28T16:16:27.621Z,0
2017-01-28T16:17:38.294Z,0
2017-01-28T16:18:48.963Z,0
2017-01-28T16:19:59.632Z,0
2017-01-28T16:21:10.332Z,0
2017-01-28T16:22:21.003Z,0
2017-01-28T16:23:31.673Z,0
2017-01-28T16:24:42.343Z,0
2017-01-28T16:25:53.049Z,0
2017-01-28T16:27:03.718Z,0
2017-01-28T16:28:14.388Z,0
2017-01-28T16:29:25.059Z,0
2017-01-28T16:30:35.736Z,0
2017-01-28T16:31:46.406Z,0
2017-01-28T16:32:57.073Z,0
2017-01-28T16:34:07.753Z,0
2017-01-28T16:35:18.424Z,0
2017-01-28T16:36:29.093Z,0
2017-01-28T16:37:39.761Z,0
2017-01-28T16:38:50.454Z,0
2017-01-28T16:40:01.123Z,0
2017-01-28T16:41:11.796Z,0
2017-01-28T16:42:22.470Z,0
2017-01-28T16:43:32.348Z,0
2017-01-28T16:44:43.018Z,0
2017-01-28T16:45:53.687Z,0
2017-01-28T16:47:04.370Z,0
2017-01-28T16:48:15.049Z,0
2017-01-28T16:49:25.723Z,0
2017-01-28T16:50:36.396Z,0
2017-01-28T16:51:47.071Z,0
2017-01-28T16:52:57.745Z,0
2017-01-28T16:54:08.438Z,0
2017-01-28T16:55:19.134Z,0
2017-01-28T16:56:29.402Z,0
2017-01-28T16:57:39.669Z,0
2017-01-28T16:58:50.334Z,0
2017-01-28T17:00:01.006Z,0
2017-01-28T17:01:10.898Z,0
2017-01-28T17:02:21.176Z,0
2017-01-28T17:03:31.085Z,0